createdAt,value
2022-12-28T00:02:19.142Z,9.00
2022-12-28T00:04:48.786Z,7.20
2022-12-28T00:07:17.646Z,9.10
2022-12-28T00:09:45.989Z,8.60
2022-12-28T00:12:16.173Z,9.20
2022-12-28T00:14:45.970Z,10.70
2022-12-28T00:17:15.175Z,10.20
2022-12-28T00:19:45.589Z,8.20
2022-12-28T00:22:13.457Z,9.20
2022-12-28T00:24:41.262Z,8.80
2022-12-28T00:27:09.358Z,7.90
2022-12-28T00:29:37.709Z,9.20
2022-12-28T00:32:06.245Z,8.30
2022-12-28T00:34:36.664Z,9.00
2022-12-28T00:37:08.790Z,8.20
2022-12-28T00:39:42.572Z,8.90
2022-12-28T00:42:11.151Z,9.40
2022-12-28T00:44:39.223Z,9.30
2022-12-28T00:47:07.231Z,9.40
2022-12-28T00:49:37.973Z,9.80
2022-12-28T00:52:07.042Z,9.20
2022-12-28T00:54:35.722Z,9.80
2022-12-28T00:57:03.784Z,6.10
2022-12-28T00:59:32.021Z,9.70
2022-12-28T01:02:00.707Z,8.10
2022-12-28T01:04:28.803Z,6.90
2022-12-28T01:06:56.576Z,7.20
2022-12-28T01:09:24.672Z,8.50
2022-12-28T01:11:52.582Z,9.10
2022-12-28T01:14:20.349Z,8.30
2022-12-28T01:16:48.278Z,6.10
2022-12-28T01:19:21.268Z,9.00
2022-12-28T01:21:52.610Z,8.70
2022-12-28T01:24:21.122Z,8.90
2022-12-28T01:26:49.932Z,8.30
2022-12-28T01:29:17.620Z,7.60
2022-12-28T01:31:45.667Z,6.80
2022-12-28T01:34:14.116Z,8.80
2022-12-28T01:36:42.072Z,10.10
2022-12-28T01:39:11.151Z,8.00
2022-12-28T01:41:40.786Z,11.30
2022-12-28T01:44:08.814Z,9.30
2022-12-28T01:47:04.164Z,7.00
2022-12-28T01:49:49.796Z,6.90
2022-12-28T01:52:29.005Z,7.40
2022-12-28T01:55:04.799Z,7.60
2022-12-28T01:57:39.530Z,6.40
2022-12-28T02:00:11.882Z,7.00
2022-12-28T02:02:44.953Z,6.50
2022-12-28T02:05:14.158Z,6.70
2022-12-28T02:08:09.040Z,7.10
2022-12-28T02:10:41.792Z,8.10
2022-12-28T02:13:15.244Z,8.50
2022-12-28T02:15:45.215Z,8.20
2022-12-28T02:18:15.748Z,7.70
2022-12-28T02:21:06.015Z,10.00
2022-12-28T02:23:47.259Z,8.10
2022-12-28T02:26:44.290Z,8.70
2022-12-28T02:29:27.170Z,7.60
2022-12-28T02:32:17.040Z,6.90
2022-12-28T02:35:06.989Z,7.10
2022-12-28T02:37:52.365Z,7.40
2022-12-28T02:40:30.132Z,8.40
2022-12-28T02:42:58.318Z,5.60
2022-12-28T02:45:37.910Z,6.10
2022-12-28T02:48:08.911Z,6.50
2022-12-28T02:51:00.969Z,5.70
2022-12-28T02:53:41.354Z,5.90
2022-12-28T02:56:44.291Z,9.30
2022-12-28T02:59:26.008Z,7.20
2022-12-28T03:02:51.670Z,6.30
2022-12-28T03:05:28.951Z,5.50
2022-12-28T03:08:07.915Z,5.90
2022-12-28T03:10:50.231Z,5.20
2022-12-28T03:13:32.691Z,4.90
2022-12-28T03:18:36.413Z,6.00
2022-12-28T03:21:09.065Z,7.20
2022-12-28T03:23:41.371Z,6.60
2022-12-28T03:26:13.975Z,7.00
2022-12-28T03:28:45.135Z,6.50
2022-12-28T03:31:21.849Z,7.50
2022-12-28T03:36:29.505Z,7.30
2022-12-28T03:39:23.143Z,6.70
2022-12-28T03:42:14.477Z,7.10
2022-12-28T03:44:51.029Z,8.00
2022-12-28T03:47:21.580Z,7.30
2022-12-28T03:49:49.649Z,7.60
2022-12-28T03:52:19.150Z,8.90
2022-12-28T03:54:47.856Z,9.20
2022-12-28T03:57:16.708Z,8.60
2022-12-28T03:59:44.787Z,5.40
2022-12-28T04:02:14.426Z,6.70
2022-12-28T04:04:45.053Z,6.60
2022-12-28T04:07:13.279Z,7.50
2022-12-28T04:09:41.309Z,8.00
2022-12-28T04:12:10.149Z,8.90
2022-12-28T04:14:38.180Z,6.70
2022-12-28T04:17:06.696Z,5.80
2022-12-28T04:19:35.833Z,6.30
2022-12-28T04:22:04.299Z,7.30
2022-12-28T04:24:33.033Z,7.10
2022-12-28T04:27:01.744Z,8.90
2022-12-28T04:29:29.402Z,9.30
2022-12-28T04:31:57.135Z,11.10
2022-12-28T04:34:25.835Z,10.60
2022-12-28T04:36:54.465Z,8.50
2022-12-28T04:39:22.665Z,7.60
2022-12-28T04:41:52.261Z,8.40
2022-12-28T04:44:20.950Z,8.20
2022-12-28T04:46:48.788Z,6.90
2022-12-28T04:49:16.395Z,8.50
2022-12-28T04:51:44.961Z,7.40
2022-12-28T04:54:14.462Z,7.80
2022-12-28T04:56:42.248Z,7.90
2022-12-28T04:59:10.824Z,7.80
2022-12-28T05:01:40.001Z,6.90
2022-12-28T05:04:08.839Z,10.60
2022-12-28T05:06:37.087Z,9.20
2022-12-28T05:09:05.904Z,11.70
2022-12-28T05:11:33.673Z,9.80
2022-12-28T05:14:02.453Z,8.30
2022-12-28T05:16:30.112Z,9.40
2022-12-28T05:18:57.946Z,7.70
2022-12-28T05:21:28.264Z,7.60
2022-12-28T05:23:57.320Z,7.50
2022-12-28T05:26:28.677Z,8.30
2022-12-28T05:28:58.701Z,12.10
2022-12-28T05:31:28.486Z,12.70
2022-12-28T05:33:58.144Z,10.70
2022-12-28T05:36:28.325Z,10.60
2022-12-28T05:38:56.362Z,8.60
2022-12-28T05:41:28.825Z,10.20
2022-12-28T05:43:58.771Z,8.40
2022-12-28T05:46:31.357Z,9.60
2022-12-28T05:49:00.667Z,11.40
2022-12-28T05:51:31.306Z,11.50
2022-12-28T05:54:01.925Z,12.70
2022-12-28T05:56:31.991Z,10.10
2022-12-28T05:59:06.213Z,9.50
2022-12-28T06:01:38.696Z,12.40
2022-12-28T06:04:27.954Z,11.60
2022-12-28T06:06:57.290Z,10.50
2022-12-28T06:09:28.162Z,11.80
2022-12-28T06:11:56.775Z,10.60
2022-12-28T06:14:25.097Z,12.10
2022-12-28T06:16:53.269Z,10.50
2022-12-28T06:19:20.960Z,10.90
2022-12-28T06:21:49.631Z,8.80
2022-12-28T06:24:17.914Z,13.30
2022-12-28T06:26:46.988Z,13.30
2022-12-28T06:29:14.959Z,14.50
2022-12-28T06:31:47.087Z,13.70
2022-12-28T06:34:15.326Z,13.30
2022-12-28T06:36:45.507Z,12.90
2022-12-28T06:39:14.660Z,13.80
2022-12-28T06:41:42.855Z,13.20
2022-12-28T06:44:13.099Z,13.60
2022-12-28T06:46:41.129Z,13.10
2022-12-28T06:49:09.235Z,13.30
2022-12-28T06:51:39.104Z,14.40
2022-12-28T06:54:07.545Z,13.30
2022-12-28T06:56:37.702Z,13.50
2022-12-28T06:59:06.525Z,14.20
2022-12-28T07:01:39.209Z,16.80
2022-12-28T07:04:09.708Z,16.40
2022-12-28T07:06:43.677Z,15.90
2022-12-28T07:09:14.293Z,15.10
2022-12-28T07:11:44.004Z,15.90
2022-12-28T07:14:12.516Z,9.70
2022-12-28T07:19:08.353Z,9.00
2022-12-28T07:21:38.452Z,10.00
2022-12-28T07:24:08.008Z,9.50
2022-12-28T07:26:37.612Z,8.50
2022-12-28T07:29:07.628Z,13.90
2022-12-28T07:31:44.863Z,16.10
2022-12-28T07:34:15.831Z,15.20
2022-12-28T07:36:44.016Z,14.60
2022-12-28T07:39:12.036Z,14.40
2022-12-28T07:41:40.091Z,13.90
2022-12-28T07:44:08.404Z,13.90
2022-12-28T07:46:37.927Z,14.80
2022-12-28T07:49:06.718Z,14.60
2022-12-28T07:51:37.739Z,13.80
2022-12-28T07:54:06.484Z,15.40
2022-12-28T07:59:04.690Z,15.80
2022-12-28T08:04:05.724Z,20.60
2022-12-28T08:06:37.016Z,16.70
2022-12-28T08:09:07.147Z,14.20
2022-12-28T08:11:38.780Z,14.30
2022-12-28T08:14:07.313Z,12.20
2022-12-28T08:16:38.074Z,12.50
2022-12-28T08:19:06.928Z,12.60
2022-12-28T08:21:37.807Z,15.20
2022-12-28T08:24:06.988Z,13.50
2022-12-28T08:26:38.697Z,15.50
2022-12-28T08:29:12.696Z,13.40
2022-12-28T08:31:43.420Z,13.50
2022-12-28T08:34:18.443Z,13.80
2022-12-28T08:36:47.465Z,12.50
2022-12-28T08:39:15.697Z,10.90
2022-12-28T08:41:43.919Z,12.00
2022-12-28T08:44:12.493Z,10.80
2022-12-28T08:46:40.560Z,12.40
2022-12-28T08:49:09.541Z,10.70
2022-12-28T08:51:40.371Z,10.10
2022-12-28T08:54:10.567Z,12.40
2022-12-28T08:56:40.731Z,11.50
2022-12-28T08:59:09.491Z,12.70
2022-12-28T09:01:44.052Z,11.80
2022-12-28T09:04:15.639Z,12.90
2022-12-28T09:06:44.665Z,14.60
2022-12-28T09:09:14.853Z,13.70
2022-12-28T09:11:44.223Z,14.90
2022-12-28T09:14:22.051Z,15.60
2022-12-28T09:16:55.229Z,15.90
2022-12-28T09:19:25.640Z,15.20
2022-12-28T09:24:23.951Z,14.10
2022-12-28T09:26:52.101Z,12.60
2022-12-28T09:29:20.408Z,14.00
2022-12-28T09:31:49.716Z,13.10
2022-12-28T09:37:08.008Z,12.80
2022-12-28T09:39:35.735Z,12.60
2022-12-28T09:42:06.109Z,13.70
2022-12-28T09:44:40.331Z,14.20
2022-12-28T09:47:08.122Z,11.70
2022-12-28T09:49:56.417Z,11.40
2022-12-28T09:52:29.906Z,10.80
2022-12-28T09:55:07.096Z,12.80
2022-12-28T09:57:39.263Z,10.80
2022-12-28T10:00:15.979Z,9.40
2022-12-28T10:02:51.094Z,11.80
2022-12-28T10:05:21.639Z,8.90
2022-12-28T10:07:51.212Z,11.00
2022-12-28T10:10:22.045Z,9.10
2022-12-28T10:12:51.074Z,8.10
2022-12-28T10:15:20.111Z,9.80
2022-12-28T10:17:48.576Z,10.70
2022-12-28T10:20:19.332Z,9.00
2022-12-28T10:22:55.866Z,9.50
2022-12-28T10:25:25.912Z,10.10
2022-12-28T10:27:54.917Z,7.20
2022-12-28T10:30:27.390Z,7.70
2022-12-28T10:33:03.125Z,7.70
2022-12-28T10:35:51.168Z,7.60
2022-12-28T10:38:34.790Z,8.10
2022-12-28T10:41:10.527Z,7.40
2022-12-28T10:43:41.502Z,9.10
2022-12-28T10:46:18.024Z,9.40
2022-12-28T10:48:53.963Z,10.90
2022-12-28T10:51:27.291Z,10.40
2022-12-28T10:53:57.602Z,9.40
2022-12-28T10:59:11.949Z,5.80
2022-12-28T11:01:43.541Z,5.10
2022-12-28T11:04:23.785Z,4.60
2022-12-28T11:07:02.098Z,6.00
2022-12-28T11:09:35.589Z,5.20
2022-12-28T11:12:18.358Z,5.10
2022-12-28T11:14:46.017Z,11.20
2022-12-28T11:17:25.960Z,8.20
2022-12-28T11:20:06.967Z,6.20
2022-12-28T11:22:34.621Z,6.00
2022-12-28T11:25:04.139Z,6.50
2022-12-28T11:27:32.015Z,6.00
2022-12-28T11:30:00.212Z,5.10
2022-12-28T11:32:36.305Z,5.90
2022-12-28T11:35:05.399Z,5.10
2022-12-28T11:37:33.243Z,6.10
2022-12-28T11:40:01.613Z,4.60
2022-12-28T11:42:41.516Z,3.60
2022-12-28T11:45:16.542Z,3.80
2022-12-28T11:47:44.611Z,3.80
2022-12-28T11:50:33.999Z,4.10
2022-12-28T11:53:10.577Z,3.90
2022-12-28T11:55:56.147Z,2.90
2022-12-28T11:58:46.217Z,3.00
2022-12-28T12:01:30.610Z,3.20
2022-12-28T12:03:58.252Z,3.50
2022-12-28T12:06:42.818Z,3.60
2022-12-28T12:09:21.312Z,2.80
2022-12-28T12:11:51.371Z,4.00
2022-12-28T12:14:27.159Z,3.70
2022-12-28T12:17:12.746Z,2.90
2022-12-28T12:19:49.523Z,3.70
2022-12-28T12:22:32.931Z,3.80
2022-12-28T12:25:29.844Z,4.10
2022-12-28T12:28:02.115Z,4.30
2022-12-28T12:30:32.104Z,3.70
2022-12-28T12:33:12.533Z,3.60
2022-12-28T12:36:01.210Z,3.40
2022-12-28T12:38:40.884Z,3.00
2022-12-28T12:41:33.363Z,2.40
2022-12-28T12:44:27.602Z,2.70
2022-12-28T12:47:07.575Z,2.60
2022-12-28T12:49:56.578Z,3.30
2022-12-28T12:52:58.782Z,2.30
2022-12-28T12:55:35.646Z,2.70
2022-12-28T12:58:20.536Z,2.20
2022-12-28T13:01:13.691Z,2.10
2022-12-28T13:03:49.225Z,2.50
2022-12-28T13:06:22.969Z,2.60
2022-12-28T13:09:04.757Z,2.40
2022-12-28T13:11:38.969Z,2.50
2022-12-28T13:14:13.052Z,2.50
2022-12-28T13:16:41.048Z,2.70
2022-12-28T13:19:19.715Z,2.40
2022-12-28T13:21:48.446Z,2.80
2022-12-28T13:24:29.085Z,3.40
2022-12-28T13:26:59.192Z,3.00
2022-12-28T13:29:39.680Z,5.30
2022-12-28T13:32:30.334Z,4.10
2022-12-28T13:35:00.729Z,4.40
2022-12-28T13:37:29.293Z,4.50
2022-12-28T13:40:17.551Z,4.80
2022-12-28T13:43:14.879Z,3.80
2022-12-28T13:45:50.965Z,4.60
2022-12-28T13:48:19.624Z,3.70
2022-12-28T13:50:48.064Z,4.30
2022-12-28T13:53:27.090Z,3.00
2022-12-28T13:55:59.759Z,4.30
2022-12-28T13:58:36.360Z,3.90
2022-12-28T14:01:09.591Z,4.00
2022-12-28T14:03:42.343Z,3.70
2022-12-28T14:06:22.388Z,3.70
2022-12-28T14:08:51.335Z,3.70
2022-12-28T14:11:19.619Z,3.90
2022-12-28T14:13:49.133Z,4.50
2022-12-28T14:16:17.407Z,5.40
2022-12-28T14:18:45.690Z,5.70
2022-12-28T14:21:13.839Z,4.60
2022-12-28T14:23:44.012Z,5.00
2022-12-28T14:26:22.755Z,5.80
2022-12-28T14:28:55.303Z,4.60
2022-12-28T14:31:32.009Z,5.30
2022-12-28T14:34:04.658Z,4.50
2022-12-28T14:36:47.922Z,4.50
2022-12-28T14:39:27.565Z,5.10
2022-12-28T14:41:57.333Z,5.10
2022-12-28T14:44:33.420Z,3.80
2022-12-28T14:47:04.099Z,4.70
2022-12-28T14:49:35.373Z,5.20
2022-12-28T14:52:09.279Z,4.40
2022-12-28T14:55:20.451Z,3.50
2022-12-28T14:57:51.539Z,3.90
2022-12-28T15:00:26.742Z,5.40
2022-12-28T15:02:56.223Z,5.00
2022-12-28T15:05:33.339Z,5.60
2022-12-28T15:08:01.955Z,5.30
2022-12-28T15:10:30.880Z,5.80
2022-12-28T15:12:58.621Z,6.40
2022-12-28T15:15:27.037Z,6.70
2022-12-28T15:17:55.311Z,6.60
2022-12-28T15:20:23.469Z,5.60
2022-12-28T15:22:51.727Z,4.40
2022-12-28T15:25:19.708Z,5.20
2022-12-28T15:27:51.964Z,4.40
2022-12-28T15:30:28.735Z,5.90
2022-12-28T15:32:57.166Z,5.80
2022-12-28T15:35:25.882Z,6.00
2022-12-28T15:37:54.414Z,5.10
2022-12-28T15:40:23.272Z,7.10
2022-12-28T15:42:51.368Z,8.30
2022-12-28T15:45:19.322Z,9.20
2022-12-28T15:47:47.700Z,8.30
2022-12-28T15:50:15.929Z,8.10
2022-12-28T15:52:44.138Z,8.40
2022-12-28T15:55:12.787Z,8.10
2022-12-28T15:57:40.668Z,7.50
2022-12-28T16:00:09.797Z,8.20
2022-12-28T16:02:38.340Z,8.30
2022-12-28T16:05:09.956Z,7.90
2022-12-28T16:10:06.753Z,7.20
2022-12-28T16:12:35.937Z,7.60
2022-12-28T16:15:04.790Z,8.70
2022-12-28T16:17:32.933Z,7.90
2022-12-28T16:20:01.527Z,7.90
2022-12-28T16:22:29.759Z,6.90
2022-12-28T16:24:57.539Z,7.30
2022-12-28T16:27:25.476Z,7.10
2022-12-28T16:29:58.578Z,7.60
2022-12-28T16:32:27.676Z,6.60
2022-12-28T16:34:55.805Z,8.00
2022-12-28T16:37:24.966Z,8.10
2022-12-28T16:39:54.784Z,8.10
2022-12-28T16:42:23.526Z,8.00
2022-12-28T16:44:51.794Z,6.80
2022-12-28T16:47:20.173Z,8.20
2022-12-28T16:49:47.895Z,8.10
2022-12-28T16:52:16.208Z,8.10
2022-12-28T16:54:44.280Z,7.90
2022-12-28T16:57:12.839Z,6.70
2022-12-28T16:59:41.106Z,7.30
2022-12-28T17:02:13.482Z,6.80
2022-12-28T17:04:42.032Z,8.80
2022-12-28T17:07:10.177Z,7.00
2022-12-28T17:09:38.089Z,7.90
2022-12-28T17:12:06.530Z,6.20
2022-12-28T17:14:37.799Z,8.50
2022-12-28T17:17:06.408Z,9.30
2022-12-28T17:19:35.617Z,8.30
2022-12-28T17:22:04.625Z,7.60
2022-12-28T17:24:33.927Z,8.10
2022-12-28T17:27:07.792Z,8.30
2022-12-28T17:29:38.834Z,6.20
2022-12-28T17:32:07.567Z,9.40
2022-12-28T17:34:36.313Z,9.40
2022-12-28T17:37:04.590Z,14.20
2022-12-28T17:39:37.939Z,13.80
2022-12-28T17:42:08.942Z,8.00
2022-12-28T17:44:37.488Z,10.20
2022-12-28T17:47:05.937Z,10.60
2022-12-28T17:49:34.755Z,7.60
2022-12-28T17:52:03.371Z,7.60
2022-12-28T17:54:31.688Z,8.40
2022-12-28T17:56:59.825Z,5.50
2022-12-28T17:59:30.133Z,7.40
2022-12-28T18:01:58.162Z,6.50
2022-12-28T18:04:27.762Z,7.70
2022-12-28T18:06:55.853Z,6.70
2022-12-28T18:09:27.596Z,6.60
2022-12-28T18:11:56.690Z,5.40
2022-12-28T18:14:25.874Z,5.50
2022-12-28T18:16:56.195Z,5.20
2022-12-28T18:19:24.722Z,5.70
2022-12-28T18:21:53.050Z,7.40
2022-12-28T18:24:21.365Z,8.00
2022-12-28T18:26:50.666Z,6.20
2022-12-28T18:29:18.494Z,6.80
2022-12-28T18:31:46.542Z,7.00
2022-12-28T18:34:14.292Z,6.70
2022-12-28T18:36:43.637Z,6.60
2022-12-28T18:39:12.421Z,6.70
2022-12-28T18:41:41.598Z,4.60
2022-12-28T18:44:09.833Z,4.40
2022-12-28T18:46:38.425Z,4.80
2022-12-28T18:49:06.705Z,5.20
2022-12-28T18:51:34.821Z,7.10
2022-12-28T18:54:03.375Z,8.30
2022-12-28T18:56:31.337Z,6.40
2022-12-28T18:58:59.919Z,5.70
2022-12-28T19:04:17.737Z,7.00
2022-12-28T19:06:47.415Z,6.10
2022-12-28T19:09:15.605Z,7.10
2022-12-28T19:11:44.599Z,5.60
2022-12-28T19:14:14.614Z,6.00
2022-12-28T19:16:42.770Z,4.20
2022-12-28T19:19:11.563Z,6.20
2022-12-28T19:21:43.127Z,4.10
2022-12-28T19:24:18.959Z,5.20
2022-12-28T19:26:47.517Z,5.20
2022-12-28T19:29:18.053Z,6.20
2022-12-28T19:31:46.044Z,5.10
2022-12-28T19:34:15.075Z,6.50
2022-12-28T19:36:43.816Z,5.50
2022-12-28T19:39:12.898Z,4.70
2022-12-28T19:41:41.185Z,4.60
2022-12-28T19:44:09.343Z,5.30
2022-12-28T19:46:38.480Z,5.60
2022-12-28T19:49:06.463Z,5.10
2022-12-28T19:51:34.251Z,5.00
2022-12-28T19:54:02.072Z,4.20
2022-12-28T19:56:30.509Z,5.80
2022-12-28T19:59:06.420Z,5.60
2022-12-28T20:01:37.576Z,5.50
2022-12-28T20:04:13.493Z,6.30
2022-12-28T20:06:44.409Z,7.50
2022-12-28T20:09:14.627Z,8.70
2022-12-28T20:14:19.110Z,5.00
2022-12-28T20:16:53.228Z,6.00
2022-12-28T20:19:21.367Z,6.20
2022-12-28T20:21:51.871Z,7.10
2022-12-28T20:24:20.056Z,8.00
2022-12-28T20:26:49.682Z,6.00
2022-12-28T20:29:17.443Z,6.80
2022-12-28T20:31:46.512Z,5.90
2022-12-28T20:34:14.227Z,4.60
2022-12-28T20:36:43.691Z,6.10
2022-12-28T20:39:12.084Z,6.00
2022-12-28T20:41:44.826Z,5.60
2022-12-28T20:44:22.616Z,5.90
2022-12-28T20:46:51.474Z,7.40
2022-12-28T20:49:21.197Z,8.70
2022-12-28T20:51:49.209Z,6.20
2022-12-28T20:54:20.545Z,7.00
2022-12-28T20:56:54.407Z,7.00
2022-12-28T20:59:25.469Z,6.40
2022-12-28T21:01:53.980Z,5.90
2022-12-28T21:04:24.331Z,5.30
2022-12-28T21:09:25.425Z,5.00
2022-12-28T21:11:53.328Z,5.50
2022-12-28T21:14:22.723Z,5.40
2022-12-28T21:16:51.252Z,5.50
2022-12-28T21:19:18.989Z,5.20
2022-12-28T21:21:47.292Z,4.90
2022-12-28T21:24:15.366Z,5.20
2022-12-28T21:26:44.162Z,5.50
2022-12-28T21:29:12.013Z,4.80
2022-12-28T21:31:39.709Z,5.80
2022-12-28T21:34:07.626Z,5.40
2022-12-28T21:36:35.528Z,4.60
2022-12-28T21:39:03.809Z,5.70
2022-12-28T21:41:31.907Z,6.10
2022-12-28T21:43:59.693Z,7.40
2022-12-28T21:46:27.555Z,6.80
2022-12-28T21:48:55.588Z,6.90
2022-12-28T21:51:24.092Z,4.80
2022-12-28T21:53:53.066Z,5.40
2022-12-28T21:56:21.208Z,5.30
2022-12-28T21:58:51.350Z,5.60
2022-12-28T22:01:19.927Z,4.50
2022-12-28T22:03:47.976Z,5.00
2022-12-28T22:06:16.169Z,4.10
2022-12-28T22:08:44.174Z,4.60
2022-12-28T22:11:12.766Z,4.80
2022-12-28T22:13:40.630Z,4.90
2022-12-28T22:16:09.107Z,4.90
2022-12-28T22:19:00.980Z,5.20
2022-12-28T22:21:25.769Z,4.50
2022-12-28T22:23:54.625Z,4.90
2022-12-28T22:26:22.528Z,3.50
2022-12-28T22:28:53.813Z,3.80
2022-12-28T22:31:23.686Z,4.20
2022-12-28T22:33:53.405Z,3.90
2022-12-28T22:36:23.746Z,4.00
2022-12-28T22:38:52.091Z,3.70
2022-12-28T22:41:21.186Z,3.00
2022-12-28T22:43:50.387Z,3.70
2022-12-28T22:46:20.749Z,4.50
2022-12-28T22:51:17.936Z,4.40
2022-12-28T22:53:46.473Z,4.90
2022-12-28T22:56:14.401Z,4.50
2022-12-28T22:58:42.579Z,3.80
2022-12-28T23:01:13.508Z,6.60
2022-12-28T23:03:43.738Z,4.70
2022-12-28T23:06:14.805Z,4.10
2022-12-28T23:08:42.940Z,4.90
2022-12-28T23:11:14.435Z,3.80
2022-12-28T23:13:42.751Z,4.40
2022-12-28T23:16:10.687Z,3.10
2022-12-28T23:18:40.895Z,3.60
2022-12-28T23:21:16.170Z,3.60
2022-12-28T23:23:44.193Z,3.20
2022-12-28T23:26:11.969Z,3.40
2022-12-28T23:28:39.617Z,3.90
2022-12-28T23:31:09.127Z,4.60
2022-12-28T23:33:37.008Z,3.00
2022-12-28T23:36:05.669Z,4.50
2022-12-28T23:38:35.529Z,4.20
2022-12-28T23:41:08.555Z,3.90
2022-12-28T23:43:36.672Z,3.50
2022-12-28T23:46:06.613Z,4.50
2022-12-28T23:48:34.940Z,4.40
2022-12-28T23:51:05.516Z,4.90
2022-12-28T23:53:33.467Z,5.00
2022-12-28T23:56:01.727Z,4.60
2022-12-28T23:58:29.700Z,5.00
